Time;durP1;ratioP1;P1;durP2;ratioP2;P2;SDS_P1;SDS_P2;PMS_P1;PMS_P2;Temp;Humidity;BMP_temperature;BMP_pressure;BME280_temperature;BME280_humidity;BME280_pressure;Samples;Min_cycle;Max_cycle;Signal;HPM_P1;HPM_P2
2021/05/01 00:00:38;;;;;;;32.03;22.67;;;;;;;8.44;78.62;95877.78;5070146;28;20041;-67
2021/05/01 00:03:05;;;;;;;36.35;23.08;;;;;;;8.41;78.87;95877.63;5069389;28;20055;-67
2021/05/01 00:05:31;;;;;;;36.70;24.10;;;;;;;8.43;79.16;95864.53;5069676;28;20046;-67
2021/05/01 00:07:57;;;;;;;37.15;24.90;;;;;;;8.44;79.24;95864.22;5070188;28;20044;-67
2021/05/01 00:10:24;;;;;;;35.15;23.92;;;;;;;8.44;79.26;95861.50;5068795;28;20053;-67
2021/05/01 00:12:49;;;;;;;36.65;24.55;;;;;;;8.46;79.27;95853.06;5070495;28;20045;-68
2021/05/01 00:15:15;;;;;;;35.20;24.10;;;;;;;8.50;79.22;95860.22;5068747;28;20045;-67
2021/05/01 00:17:41;;;;;;;34.85;23.42;;;;;;;8.49;79.38;95853.22;5070449;28;20472;-67
2021/05/01 00:20:09;;;;;;;36.05;23.75;;;;;;;8.45;79.25;95856.88;5068730;28;20044;-67
2021/05/01 00:22:35;;;;;;;34.95;22.88;;;;;;;8.45;79.19;95852.25;5088247;28;20040;-68
2021/05/01 00:25:01;;;;;;;32.13;21.73;;;;;;;8.39;78.89;95850.00;5089746;28;20055;-68
2021/05/01 00:27:28;;;;;;;32.65;22.98;;;;;;;8.35;78.71;95858.75;5087950;28;20036;-67
2021/05/01 00:29:54;;;;;;;34.22;22.55;;;;;;;8.30;78.78;95856.19;5069634;28;20052;-67
2021/05/01 00:32:20;;;;;;;33.78;22.88;;;;;;;8.36;78.94;95856.88;5068898;28;20679;-67
2021/05/01 00:34:46;;;;;;;33.40;23.48;;;;;;;8.28;78.69;95852.97;5072417;28;20049;-67
2021/05/01 00:37:11;;;;;;;33.13;22.75;;;;;;;8.35;78.73;95868.78;5072294;28;20052;-67
2021/05/01 00:39:37;;;;;;;34.30;22.75;;;;;;;8.37;78.91;95869.31;5074092;28;20040;-67
2021/05/01 00:42:04;;;;;;;36.63;23.48;;;;;;;8.24;78.83;95883.75;5072373;28;20127;-67
2021/05/01 00:44:31;;;;;;;33.03;22.48;;;;;;;8.20;79.18;95866.53;5073799;28;20454;-67
2021/05/01 00:46:57;;;;;;;36.08;24.38;;;;;;;8.22;79.09;95861.56;5072691;28;20052;-67
2021/05/01 00:49:23;;;;;;;35.67;23.90;;;;;;;8.32;79.02;95858.56;5073042;28;20052;-67
2021/05/01 00:51:49;;;;;;;38.55;25.20;;;;;;;8.36;78.83;95843.31;5084822;28;20439;-67
2021/05/01 00:54:15;;;;;;;38.05;24.75;;;;;;;8.40;79.18;95844.25;5092925;28;20066;-67
2021/05/01 00:56:42;;;;;;;36.40;24.45;;;;;;;8.45;78.15;95860.38;5093329;28;20513;-67
2021/05/01 00:59:07;;;;;;;37.97;24.42;;;;;;;8.34;77.86;95867.19;5076775;28;20468;-67
2021/05/01 01:01:36;;;;;;;37.30;23.13;;;;;;;8.42;78.69;95866.44;5073354;28;20064;-67
2021/05/01 01:04:03;;;;;;;36.22;24.40;;;;;;;8.45;78.41;95857.66;5072024;28;20040;-67
2021/05/01 01:06:29;;;;;;;36.85;24.42;;;;;;;8.50;78.36;95865.66;5073246;28;20499;-67
2021/05/01 01:08:55;;;;;;;37.38;24.77;;;;;;;8.45;78.20;95856.88;5071896;28;20402;-67
2021/05/01 01:11:21;;;;;;;39.38;26.05;;;;;;;8.42;78.21;95852.88;5072691;28;20056;-67
2021/05/01 01:13:46;;;;;;;37.42;25.10;;;;;;;8.45;78.73;95852.25;5072267;28;20041;-67
2021/05/01 01:16:12;;;;;;;40.28;26.77;;;;;;;8.51;78.63;95859.13;5072436;28;20053;-66
2021/05/01 01:18:39;;;;;;;36.35;25.35;;;;;;;8.57;78.68;95855.16;5072685;28;20059;-66
2021/05/01 01:21:06;;;;;;;36.10;24.70;;;;;;;8.59;77.94;95852.13;5077711;28;20048;-66
2021/05/01 01:23:33;;;;;;;38.00;25.45;;;;;;;8.63;77.81;95847.66;5093151;28;20044;-66
2021/05/01 01:26:00;;;;;;;40.33;26.20;;;;;;;8.61;77.49;95852.59;5085778;28;20059;-66
2021/05/01 01:28:26;;;;;;;41.42;27.63;;;;;;;8.61;77.99;95853.41;5072404;28;20049;-66
2021/05/01 01:30:52;;;;;;;43.30;27.70;;;;;;;8.66;78.00;95851.63;5088200;28;20143;-66
2021/05/01 01:33:18;;;;;;;38.58;25.67;;;;;;;8.71;77.38;95854.19;5092818;28;20044;-66
2021/05/01 01:35:44;;;;;;;39.20;25.70;;;;;;;8.73;76.82;95862.84;5091815;28;20044;-66
2021/05/01 01:38:10;;;;;;;39.95;26.40;;;;;;;8.74;77.20;95859.78;5092485;28;20517;-66
2021/05/01 01:40:38;;;;;;;40.63;25.92;;;;;;;8.75;76.58;95855.16;5092881;28;20056;-66
2021/05/01 01:43:05;;;;;;;41.17;26.20;;;;;;;8.72;77.47;95858.50;5091901;28;20048;-66
2021/05/01 01:45:31;;;;;;;42.90;28.20;;;;;;;8.75;77.37;95855.16;5091701;28;20040;-66
2021/05/01 01:47:59;;;;;;;43.53;28.38;;;;;;;8.81;77.74;95853.88;5091965;28;20044;-66
2021/05/01 01:50:26;;;;;;;40.95;27.33;;;;;;;8.89;77.64;95858.53;5091987;28;20040;-66
2021/05/01 01:52:52;;;;;;;37.88;26.70;;;;;;;8.95;77.20;95870.84;5091556;28;20044;-66
2021/05/01 01:55:22;;;;;;;41.38;26.48;;;;;;;8.97;76.28;95873.22;5092281;28;20051;-66
2021/05/01 01:57:49;;;;;;;44.05;28.05;;;;;;;8.98;76.69;95872.09;5074210;28;20090;-66
2021/05/01 02:00:18;;;;;;;41.67;28.52;;;;;;;8.96;76.78;95864.28;5071866;28;20056;-67
2021/05/01 02:02:44;;;;;;;41.78;27.63;;;;;;;9.02;76.78;95860.28;5071257;28;20055;-67
2021/05/01 02:05:11;;;;;;;38.35;27.05;;;;;;;9.08;76.37;95859.03;5071427;28;20097;-66
2021/05/01 02:07:38;;;;;;;42.25;28.00;;;;;;;9.05;75.68;95862.38;5071461;28;20411;-67
2021/05/01 02:10:05;;;;;;;37.55;26.17;;;;;;;8.88;75.08;95865.09;5071018;28;20564;-66
2021/05/01 02:12:33;;;;;;;39.22;25.50;;;;;;;8.82;75.58;95871.75;5071845;28;20068;-66
2021/05/01 02:14:59;;;;;;;38.22;25.95;;;;;;;8.76;76.16;95873.03;5070988;28;20044;-66
2021/05/01 02:17:25;;;;;;;39.72;27.00;;;;;;;8.71;75.97;95865.84;5071631;28;20048;-68
2021/05/01 02:19:51;;;;;;;40.83;26.40;;;;;;;8.70;76.02;95863.47;5070739;28;20565;-66
2021/05/01 02:22:17;;;;;;;42.35;27.30;;;;;;;8.72;76.14;95867.47;5087251;28;20067;-66
2021/05/01 02:24:43;;;;;;;42.53;26.95;;;;;;;8.71;76.43;95868.56;5091155;28;20051;-66
2021/05/01 02:27:09;;;;;;;42.15;27.92;;;;;;;8.75;76.89;95866.03;5079395;28;20044;-66
2021/05/01 02:29:35;;;;;;;43.92;28.42;;;;;;;8.73;77.13;95858.19;5070743;28;20051;-66
2021/05/01 02:32:03;;;;;;;49.10;29.67;;;;;;;8.75;77.65;95852.44;5070571;28;20054;-68
2021/05/01 02:34:29;;;;;;;44.70;28.55;;;;;;;8.74;77.51;95851.66;5071378;28;20045;-66
2021/05/01 02:36:55;;;;;;;47.50;29.42;;;;;;;8.71;77.69;95851.47;5070713;28;20055;-66
2021/05/01 02:39:20;;;;;;;45.03;29.40;;;;;;;8.65;77.35;95850.03;5053303;28;20937;-66
2021/05/01 02:41:46;;;;;;;42.67;27.63;;;;;;;8.60;77.42;95849.06;5070336;28;20048;-66
2021/05/01 02:44:12;;;;;;;48.30;29.63;;;;;;;8.49;77.96;95842.34;5071162;28;20053;-67
2021/05/01 02:46:38;;;;;;;43.95;28.38;;;;;;;8.45;77.87;95840.59;5070316;28;20048;-66
2021/05/01 02:49:05;;;;;;;45.63;28.88;;;;;;;8.40;78.38;95833.41;5071010;28;20055;-67
2021/05/01 02:51:31;;;;;;;48.70;29.52;;;;;;;8.44;78.59;95828.94;5079837;28;20409;-66
2021/05/01 02:53:57;;;;;;;50.00;30.85;;;;;;;8.45;79.21;95835.97;5091307;28;20046;-66
2021/05/01 02:56:23;;;;;;;48.08;30.13;;;;;;;8.47;79.28;95841.88;5084941;28;20074;-66
2021/05/01 02:58:48;;;;;;;45.70;28.67;;;;;;;8.49;78.88;95836.94;5069737;28;20398;-66
2021/05/01 03:01:14;;;;;;;45.55;28.92;;;;;;;8.43;78.09;95832.78;5070224;28;20075;-67
2021/05/01 03:03:45;;;;;;;46.92;29.13;;;;;;;8.44;78.65;95833.56;5070239;28;20114;-67
2021/05/01 03:06:13;;;;;;;49.25;30.50;;;;;;;8.34;79.18;95840.84;5070564;28;20494;-66
2021/05/01 03:08:39;;;;;;;46.88;30.10;;;;;;;8.33;79.80;95838.47;5069899;28;20468;-67
2021/05/01 03:11:05;;;;;;;49.40;31.20;;;;;;;8.41;80.16;95837.72;5070676;28;20052;-66
2021/05/01 03:13:31;;;;;;;52.47;31.48;;;;;;;8.48;80.47;95835.34;5069878;28;20041;-65
2021/05/01 03:15:57;;;;;;;53.65;32.05;;;;;;;8.56;80.48;95837.28;5070913;28;20502;-66
2021/05/01 03:18:23;;;;;;;48.20;31.60;;;;;;;8.60;80.33;95838.22;5069554;28;20049;-66
2021/05/01 03:20:49;;;;;;;56.90;33.03;;;;;;;8.63;80.47;95837.59;5073680;28;20047;-67
2021/05/01 03:23:16;;;;;;;54.25;31.15;;;;;;;8.65;80.77;95834.56;5090055;28;20619;-66
2021/05/01 03:25:42;;;;;;;53.92;32.58;;;;;;;8.66;80.67;95838.06;5090274;28;20048;-67
2021/05/01 03:28:08;;;;;;;52.97;32.67;;;;;;;8.67;80.54;95836.97;5070212;28;20056;-66
2021/05/01 03:30:34;;;;;;;51.53;31.42;;;;;;;8.70;80.11;95830.88;5069471;28;20055;-68
2021/05/01 03:33:00;;;;;;;56.72;31.80;;;;;;;8.71;79.79;95835.19;5070908;28;20078;-66
2021/05/01 03:35:26;;;;;;;55.83;33.58;;;;;;;8.70;79.67;95834.41;5069173;28;20047;-66
2021/05/01 03:37:52;;;;;;;54.00;33.20;;;;;;;8.71;79.96;95829.75;5070801;28;20044;-66
2021/05/01 03:40:19;;;;;;;56.85;33.42;;;;;;;8.70;80.20;95823.53;5069228;28;20040;-66
2021/05/01 03:42:45;;;;;;;54.83;33.08;;;;;;;8.75;80.12;95817.97;5070390;28;20059;-66
2021/05/01 03:45:12;;;;;;;55.55;33.15;;;;;;;8.81;80.08;95810.44;5069407;28;20048;-66
2021/05/01 03:47:38;;;;;;;51.60;31.55;;;;;;;8.88;80.00;95806.16;5069976;28;20387;-66
2021/05/01 03:50:05;;;;;;;49.33;30.05;;;;;;;8.91;78.37;95809.34;5069252;28;20070;-67
2021/05/01 03:52:31;;;;;;;50.22;32.28;;;;;;;8.90;78.07;95805.81;5087109;28;20040;-66
2021/05/01 03:54:57;;;;;;;50.05;31.42;;;;;;;8.84;78.44;95801.69;5090495;28;20040;-66
2021/05/01 03:57:23;;;;;;;50.45;31.05;;;;;;;8.86;78.60;95794.00;5075555;28;20041;-66
2021/05/01 03:59:50;;;;;;;54.15;32.38;;;;;;;8.88;78.15;95794.50;5070614;28;20052;-66
2021/05/01 04:02:16;;;;;;;50.80;31.60;;;;;;;8.89;78.65;95790.66;5068774;28;20121;-66
2021/05/01 04:04:42;;;;;;;51.45;30.38;;;;;;;8.91;78.13;95780.25;5070352;28;20488;-66
2021/05/01 04:07:08;;;;;;;53.78;33.63;;;;;;;8.92;78.50;95781.84;5068930;28;20052;-66
2021/05/01 04:09:34;;;;;;;49.60;30.75;;;;;;;8.94;78.79;95782.34;5072181;28;20052;-66
2021/05/01 04:12:00;;;;;;;51.45;31.10;;;;;;;8.96;78.58;95796.38;5073674;28;20044;-66
2021/05/01 04:14:27;;;;;;;48.67;29.63;;;;;;;8.99;78.42;95801.19;5073476;28;20037;-66
2021/05/01 04:16:53;;;;;;;47.80;29.90;;;;;;;8.99;78.41;95803.91;5074057;28;20045;-68
2021/05/01 04:19:19;;;;;;;45.88;30.55;;;;;;;9.02;78.01;95805.16;5072631;28;20044;-66
2021/05/01 04:21:45;;;;;;;49.78;30.20;;;;;;;9.00;78.33;95804.69;5085570;28;20139;-66
2021/05/01 04:24:11;;;;;;;47.38;29.92;;;;;;;9.00;78.17;95796.56;5090509;28;20056;-66
2021/05/01 04:26:37;;;;;;;57.85;31.88;;;;;;;8.96;78.33;95795.59;5085184;28;20533;-66
2021/05/01 04:29:03;;;;;;;54.03;31.55;;;;;;;8.98;78.32;95799.59;5071537;28;20064;-66
2021/05/01 04:31:30;;;;;;;49.35;30.40;;;;;;;9.01;78.26;95798.94;5073541;28;20388;-66
2021/05/01 04:33:56;;;;;;;55.50;31.70;;;;;;;9.04;78.17;95787.44;5072906;28;20071;-66
2021/05/01 04:36:21;;;;;;;57.67;31.85;;;;;;;9.09;77.99;95790.00;5073325;28;20464;-66
2021/05/01 04:38:47;;;;;;;48.03;30.05;;;;;;;9.14;78.07;95803.41;5073372;28;20098;-66
2021/05/01 04:41:13;;;;;;;49.67;31.35;;;;;;;9.15;77.26;95799.56;5072761;28;20202;-66
2021/05/01 04:43:40;;;;;;;48.70;31.13;;;;;;;9.17;76.54;95801.16;5073780;28;20052;-67
2021/05/01 04:46:07;;;;;;;48.83;30.38;;;;;;;9.18;76.93;95808.19;5072003;28;20048;-69
2021/05/01 04:48:33;;;;;;;49.65;29.60;;;;;;;9.22;77.31;95818.09;5073946;28;20052;-66
2021/05/01 04:50:59;;;;;;;48.17;30.08;;;;;;;9.21;76.65;95818.41;5077571;28;20574;-66
2021/05/01 04:53:25;;;;;;;46.53;28.92;;;;;;;9.18;77.25;95816.34;5093595;28;20044;-66
2021/05/01 04:55:51;;;;;;;51.13;31.23;;;;;;;9.20;77.58;95814.91;5091999;28;20550;-66
2021/05/01 04:58:17;;;;;;;48.60;30.40;;;;;;;9.25;77.24;95811.22;5072700;28;20052;-66
2021/05/01 05:00:43;;;;;;;45.45;28.83;;;;;;;9.29;76.80;95814.88;5071897;28;20716;-68
2021/05/01 05:03:10;;;;;;;48.15;30.58;;;;;;;9.30;76.62;95805.63;5072291;28;20052;-68
2021/05/01 05:05:37;;;;;;;46.45;28.88;;;;;;;9.31;77.01;95809.94;5072779;28;20514;-68
2021/05/01 05:08:03;;;;;;;47.35;29.65;;;;;;;9.31;76.41;95802.56;5071587;28;20059;-68
2021/05/01 05:10:29;;;;;;;45.88;29.55;;;;;;;9.28;76.20;95796.97;5072885;28;20110;-67
2021/05/01 05:12:55;;;;;;;45.45;29.10;;;;;;;9.28;76.28;95807.84;5072042;28;20041;-68
2021/05/01 05:15:21;;;;;;;49.63;29.88;;;;;;;9.24;76.00;95802.28;5072407;28;20060;-66
2021/05/01 05:17:47;;;;;;;50.00;30.95;;;;;;;9.23;76.16;95806.09;5071957;28;20174;-66
2021/05/01 05:20:14;;;;;;;47.35;30.08;;;;;;;9.25;76.63;95813.94;5071737;28;20048;-66
2021/05/01 05:22:40;;;;;;;50.20;30.75;;;;;;;9.26;76.01;95827.19;5091107;28;20052;-66
2021/05/01 05:25:07;;;;;;;46.55;29.67;;;;;;;9.31;76.45;95827.03;5092461;28;20040;-66
2021/05/01 05:27:33;;;;;;;48.40;30.48;;;;;;;9.38;76.45;95807.50;5077103;28;20045;-66
2021/05/01 05:29:59;;;;;;;50.50;29.48;;;;;;;9.41;76.05;95796.00;5072069;28;20051;-66
2021/05/01 05:32:25;;;;;;;45.95;28.70;;;;;;;9.37;75.78;95795.03;5072128;28;20049;-66
2021/05/01 05:34:52;;;;;;;45.10;29.35;;;;;;;9.33;75.53;95778.59;5071986;28;20098;-66
2021/05/01 05:37:18;;;;;;;47.17;29.85;;;;;;;9.32;76.14;95781.63;5071975;28;20055;-66
2021/05/01 05:39:47;;;;;;;47.20;29.77;;;;;;;9.32;75.71;95784.34;5071176;28;20592;-67
2021/05/01 05:42:13;;;;;;;47.83;29.98;;;;;;;9.29;75.65;95790.41;5072164;28;20499;-67
2021/05/01 05:44:41;;;;;;;46.45;28.02;;;;;;;9.39;76.23;95798.22;5071340;28;20044;-66
2021/05/01 05:47:07;;;;;;;46.90;29.23;;;;;;;9.47;74.91;95805.56;5071850;28;20088;-67
2021/05/01 05:49:33;;;;;;;44.50;28.67;;;;;;;9.54;75.26;95805.88;5071303;28;20051;-66
2021/05/01 05:51:59;;;;;;;44.33;28.88;;;;;;;9.59;75.30;95802.97;5085073;28;20044;-67
2021/05/01 05:54:25;;;;;;;44.78;28.70;;;;;;;9.67;75.08;95804.88;5091460;28;20040;-67
2021/05/01 05:56:52;;;;;;;49.10;30.38;;;;;;;9.73;75.35;95791.91;5082103;28;20044;-66
2021/05/01 05:59:18;;;;;;;50.03;30.33;;;;;;;9.78;75.43;95788.22;5071544;28;20098;-66
2021/05/01 06:01:46;;;;;;;54.00;32.13;;;;;;;9.88;76.09;95771.53;5071223;28;20044;-66
2021/05/01 06:04:16;;;;;;;44.80;29.00;;;;;;;9.93;75.69;95758.53;5071940;28;20395;-66
2021/05/01 06:06:52;;;;;;;44.03;29.40;;;;;;;10.02;75.51;95752.22;5091219;28;20055;-66
2021/05/01 06:09:19;;;;;;;50.83;29.63;;;;;;;10.11;75.75;95748.34;5091708;28;20048;-66
2021/05/01 06:11:45;;;;;;;45.17;28.38;;;;;;;10.18;75.37;95743.19;5091384;28;20430;-66
2021/05/01 06:14:15;;;;;;;41.35;28.05;;;;;;;10.32;74.33;95742.97;5091457;28;20109;-66
2021/05/01 06:16:43;;;;;;;46.42;28.23;;;;;;;10.41;74.30;95751.06;5091425;28;20051;-66
2021/05/01 06:19:10;;;;;;;43.40;28.00;;;;;;;10.55;73.78;95748.09;5090515;28;20072;-65
2021/05/01 06:21:36;;;;;;;45.08;28.02;;;;;;;10.64;73.51;95748.81;5090839;28;20055;-70
2021/05/01 06:24:02;;;;;;;40.25;27.77;;;;;;;10.74;73.53;95753.84;5087915;28;20048;-70
2021/05/01 06:26:28;;;;;;;41.40;28.17;;;;;;;10.90;73.08;95759.47;5082924;28;20056;-69
2021/05/01 06:28:54;;;;;;;42.17;27.08;;;;;;;10.91;71.76;95748.25;5067527;28;20048;-70
2021/05/01 06:31:22;;;;;;;39.95;27.27;;;;;;;10.93;72.04;95750.66;5068303;28;20505;-69
2021/05/01 06:33:48;;;;;;;43.53;27.60;;;;;;;10.97;72.37;95735.22;5068063;28;20052;-69
2021/05/01 06:36:16;;;;;;;41.13;27.98;;;;;;;10.97;72.33;95730.56;5068128;28;20632;-70
2021/05/01 06:38:43;;;;;;;41.03;28.17;;;;;;;10.91;71.78;95736.53;5068160;28;20044;-70
2021/05/01 06:41:12;;;;;;;37.85;25.13;;;;;;;10.92;71.24;95738.16;5067803;28;20522;-71
2021/05/01 06:43:49;;;;;;;40.58;27.48;;;;;;;10.94;72.26;95746.78;5068471;28;20049;-70
2021/05/01 06:46:18;;;;;;;41.50;26.83;;;;;;;11.00;72.33;95740.00;5066867;28;20079;-70
2021/05/01 06:48:50;;;;;;;40.95;26.65;;;;;;;11.04;71.38;95740.13;5068751;28;20080;-70
2021/05/01 06:51:17;;;;;;;40.35;27.25;;;;;;;10.99;71.86;95743.84;5067286;28;20080;-71
2021/05/01 06:53:43;;;;;;;42.00;26.63;;;;;;;11.00;72.52;95750.88;5069117;28;20048;-71
2021/05/01 06:56:12;;;;;;;42.78;28.63;;;;;;;11.07;72.22;95751.16;5071926;28;20053;-71
2021/05/01 06:58:40;;;;;;;37.35;26.10;;;;;;;11.09;71.87;95746.16;5087575;28;20059;-69
2021/05/01 07:01:09;;;;;;;39.42;26.58;;;;;;;11.12;71.23;95753.69;5087611;28;20052;-71
2021/05/01 07:03:40;;;;;;;39.47;26.02;;;;;;;11.19;70.98;95758.56;5087971;28;20112;-76
2021/05/01 07:06:08;;;;;;;34.65;22.90;;;;;;;11.16;70.13;95761.97;5088266;28;20059;-75
2021/05/01 07:08:34;;;;;;;36.97;25.33;;;;;;;11.18;71.49;95763.22;5087231;28;20040;-72
2021/05/01 07:11:01;;;;;;;38.90;24.60;;;;;;;11.29;71.63;95758.16;5088674;28;20056;-72
2021/05/01 07:13:27;;;;;;;37.85;24.50;;;;;;;11.35;70.51;95745.88;5086908;28;20044;-71
2021/05/01 07:16:00;;;;;;;37.72;25.80;;;;;;;11.43;69.54;95733.28;5088560;28;20056;-71
2021/05/01 07:18:27;;;;;;;36.63;23.87;;;;;;;11.64;69.09;95742.19;5087188;28;20048;-71
2021/05/01 07:20:56;;;;;;;33.45;22.90;;;;;;;11.82;68.70;95755.66;5087587;28;20282;-71
2021/05/01 07:23:23;;;;;;;36.50;23.58;;;;;;;11.97;69.10;95757.69;5087056;28;20055;-71
2021/05/01 07:25:49;;;;;;;32.47;22.35;;;;;;;12.10;68.78;95745.63;5087802;28;20051;-72
2021/05/01 07:28:19;;;;;;;30.95;22.15;;;;;;;12.15;67.31;95737.22;5087515;28;20113;-72
2021/05/01 07:30:46;;;;;;;34.83;22.92;;;;;;;12.26;67.47;95732.88;5072000;28;20064;-71
2021/05/01 07:33:18;;;;;;;33.58;22.23;;;;;;;12.40;68.36;95735.25;5067788;28;20721;-71
2021/05/01 07:35:48;;;;;;;31.60;22.67;;;;;;;12.53;66.92;95744.22;5067334;28;20056;-71
2021/05/01 07:38:15;;;;;;;32.88;22.70;;;;;;;12.60;67.04;95760.00;5067505;28;20048;-71
2021/05/01 07:40:43;;;;;;;31.02;22.02;;;;;;;12.62;65.94;95768.66;5067698;28;20098;-70
2021/05/01 07:43:15;;;;;;;31.00;22.10;;;;;;;12.60;65.88;95766.28;5066914;28;20102;-71
2021/05/01 07:45:41;;;;;;;29.58;20.60;;;;;;;12.66;66.25;95748.50;5067638;28;20495;-72
2021/05/01 07:48:10;;;;;;;30.92;21.38;;;;;;;12.83;65.98;95741.94;5082071;28;20052;-71
2021/05/01 07:50:36;;;;;;;29.52;21.20;;;;;;;13.28;64.75;95730.72;5068175;28;20081;-71
2021/05/01 07:53:03;;;;;;;27.10;19.55;;;;;;;13.78;62.79;95742.16;5085851;28;20040;-71
2021/05/01 07:55:29;;;;;;;27.00;20.05;;;;;;;14.01;62.54;95728.63;5088291;28;20105;-72
2021/05/01 07:57:56;;;;;;;28.83;19.95;;;;;;;14.09;62.14;95719.44;5066841;28;20056;-72
2021/05/01 08:00:22;;;;;;;26.75;20.33;;;;;;;14.31;60.43;95718.78;5067706;28;20044;-71
2021/05/01 08:02:49;;;;;;;29.52;20.27;;;;;;;14.86;59.39;95713.31;5067233;28;20044;-72
2021/05/01 08:05:17;;;;;;;24.88;18.42;;;;;;;14.80;58.18;95710.06;5067230;28;20048;-71
2021/05/01 08:07:44;;;;;;;29.98;20.45;;;;;;;14.80;59.14;95698.31;5067855;28;20098;-70
2021/05/01 08:10:11;;;;;;;27.50;19.83;;;;;;;14.79;58.37;95694.78;5066676;28;20041;-71
2021/05/01 08:12:37;;;;;;;25.95;19.70;;;;;;;14.86;57.60;95691.38;5067307;28;20056;-71
2021/05/01 08:15:06;;;;;;;26.20;19.30;;;;;;;14.77;59.32;95680.66;5066158;28;20072;-71
2021/05/01 08:17:32;;;;;;;25.98;18.50;;;;;;;14.60;59.04;95678.31;5067885;28;20044;-71
2021/05/01 08:19:57;;;;;;;26.83;18.90;;;;;;;14.56;59.29;95672.78;5066837;28;20067;-71
2021/05/01 08:22:24;;;;;;;25.23;18.90;;;;;;;14.65;59.83;95677.25;5085341;28;20075;-70
2021/05/01 08:24:50;;;;;;;24.85;17.67;;;;;;;14.82;58.08;95680.34;5069102;28;20074;-71
2021/05/01 08:27:16;;;;;;;22.95;17.33;;;;;;;15.48;57.87;95677.63;5068901;28;20500;-71
2021/05/01 08:29:42;;;;;;;23.98;17.88;;;;;;;16.22;59.01;95667.06;5080470;28;20457;-70
2021/05/01 08:32:10;;;;;;;23.55;18.35;;;;;;;16.52;57.06;95663.53;5066706;28;20057;-72
2021/05/01 08:34:36;;;;;;;22.33;17.67;;;;;;;16.79;54.51;95656.06;5067482;28;20056;-73
2021/05/01 08:37:02;;;;;;;23.85;17.80;;;;;;;16.95;55.15;95649.16;5066192;28;20160;-73
2021/05/01 08:39:28;;;;;;;22.25;17.77;;;;;;;16.86;55.22;95651.44;5067274;28;20048;-73
2021/05/01 08:41:54;;;;;;;23.63;18.00;;;;;;;16.55;53.13;95652.59;5066499;28;20053;-72
2021/05/01 08:44:20;;;;;;;22.63;18.40;;;;;;;16.72;55.42;95640.28;5067044;28;20392;-71
2021/05/01 08:46:47;;;;;;;27.33;19.15;;;;;;;16.89;53.45;95638.88;5066561;28;20052;-71
2021/05/01 08:49:14;;;;;;;24.48;19.02;;;;;;;16.81;53.37;95643.53;5067068;28;20040;-72
2021/05/01 08:51:43;;;;;;;24.00;18.88;;;;;;;16.83;53.21;95635.69;5084492;28;20120;-71
2021/05/01 08:54:11;;;;;;;25.55;19.65;;;;;;;16.89;52.79;95631.44;5086619;28;20052;-71
2021/05/01 08:56:37;;;;;;;27.02;19.92;;;;;;;16.87;52.92;95633.78;5083266;28;20052;-71
2021/05/01 08:59:04;;;;;;;25.95;19.55;;;;;;;16.81;55.31;95638.03;5070128;28;20056;-71
2021/05/01 09:01:30;;;;;;;25.58;19.83;;;;;;;16.67;54.66;95637.81;5070705;28;20067;-72
2021/05/01 09:03:56;;;;;;;25.38;19.52;;;;;;;16.82;53.08;95633.31;5070109;28;20048;-72
2021/05/01 09:06:24;;;;;;;24.00;18.60;;;;;;;17.10;53.65;95632.81;5070334;28;20395;-71
2021/05/01 09:08:55;;;;;;;22.40;17.80;;;;;;;17.14;53.53;95637.19;5069677;28;20045;-71
2021/05/01 09:11:32;;;;;;;24.00;18.02;;;;;;;16.89;53.38;95649.88;5070718;28;20059;-71
2021/05/01 09:13:58;;;;;;;25.40;17.27;;;;;;;16.51;52.50;95649.00;5070194;28;20056;-71
2021/05/01 09:16:24;;;;;;;20.98;15.73;;;;;;;16.22;53.25;95655.28;5069778;28;20060;-71
2021/05/01 09:18:53;;;;;;;21.42;16.48;;;;;;;16.04;54.44;95649.53;5069905;28;20044;-70
2021/05/01 09:21:22;;;;;;;27.83;17.17;;;;;;;15.80;55.44;95656.25;5077359;28;20072;-73
2021/05/01 09:23:50;;;;;;;22.88;16.67;;;;;;;15.53;54.73;95663.63;5072613;28;20113;-71
2021/05/01 09:26:18;;;;;;;21.60;15.88;;;;;;;15.36;55.85;95656.66;5085113;28;20075;-71
2021/05/01 09:28:45;;;;;;;21.25;15.75;;;;;;;15.25;56.85;95659.22;5069964;28;20499;-71
2021/05/01 09:31:13;;;;;;;23.88;16.17;;;;;;;15.11;56.70;95648.00;5069014;28;20044;-71
2021/05/01 09:33:40;;;;;;;24.38;17.00;;;;;;;15.02;58.50;95639.19;5070147;28;20052;-71
2021/05/01 09:36:12;;;;;;;20.70;15.13;;;;;;;14.88;58.16;95629.56;5069124;28;20640;-71
2021/05/01 09:38:41;;;;;;;17.02;12.63;;;;;;;14.81;59.02;95621.19;5069430;28;20511;-73
2021/05/01 09:41:11;;;;;;;20.60;14.75;;;;;;;14.75;57.58;95628.13;5069322;28;20068;-71
2021/05/01 09:43:54;;;;;;;19.38;13.80;;;;;;;14.58;58.50;95629.38;5070011;28;20048;-71
2021/05/01 09:46:20;;;;;;;22.75;15.25;;;;;;;14.47;57.86;95624.81;5069621;28;20049;-71
2021/05/01 09:49:02;;;;;;;27.50;15.60;;;;;;;14.43;59.25;95630.22;5069192;28;20094;-71
2021/05/01 09:51:31;;;;;;;20.48;15.20;;;;;;;14.34;60.26;95630.41;5078907;28;20498;-71
2021/05/01 09:53:58;;;;;;;23.35;16.55;;;;;;;14.30;60.02;95628.75;5089413;28;20052;-72
2021/05/01 09:56:28;;;;;;;19.25;15.02;;;;;;;14.19;60.67;95631.25;5083760;28;20445;-71
2021/05/01 09:58:54;;;;;;;19.98;14.52;;;;;;;14.16;61.16;95626.53;5069533;28;20045;-71
2021/05/01 10:01:20;;;;;;;18.10;14.27;;;;;;;14.14;61.72;95620.59;5068947;28;20044;-72
2021/05/01 10:03:47;;;;;;;17.88;13.95;;;;;;;14.10;61.05;95617.00;5069694;28;20054;-72
2021/05/01 10:06:18;;;;;;;16.95;12.90;;;;;;;14.08;60.46;95609.13;5067449;28;20059;-71
2021/05/01 10:08:53;;;;;;;18.10;11.93;;;;;;;14.09;60.19;95598.97;5069235;28;20052;-71
2021/05/01 10:11:23;;;;;;;16.33;12.35;;;;;;;14.15;60.78;95599.47;5068444;28;20056;-72
2021/05/01 10:13:52;;;;;;;14.13;10.82;;;;;;;14.19;59.35;95594.88;5069827;28;20135;-72
2021/05/01 10:16:20;;;;;;;14.88;11.38;;;;;;;14.22;60.30;95588.69;5068180;28;20083;-71
2021/05/01 10:19:05;;;;;;;14.48;11.15;;;;;;;14.26;60.05;95582.13;5068899;28;20403;-71
2021/05/01 10:21:31;;;;;;;13.63;10.90;;;;;;;14.34;61.37;95572.91;5077393;28;20078;-73
2021/05/01 10:23:57;;;;;;;14.45;11.50;;;;;;;14.41;58.77;95577.75;5088510;28;20094;-73
2021/05/01 10:26:24;;;;;;;15.13;11.38;;;;;;;14.45;58.49;95578.59;5089027;28;20044;-73
2021/05/01 10:28:55;;;;;;;13.27;10.52;;;;;;;14.54;58.56;95570.97;5087979;28;20047;-71
2021/05/01 10:31:23;;;;;;;14.30;10.80;;;;;;;14.67;59.29;95571.63;5068814;28;20072;-71
2021/05/01 10:33:51;;;;;;;12.93;10.18;;;;;;;14.70;59.66;95570.88;5068418;28;20053;-71
2021/05/01 10:36:21;;;;;;;14.85;10.10;;;;;;;14.67;57.74;95566.16;5068476;28;20044;-71
2021/05/01 10:38:58;;;;;;;13.70;10.07;;;;;;;14.68;58.31;95562.25;5068801;28;20049;-72
2021/05/01 10:41:24;;;;;;;13.77;9.93;;;;;;;14.77;58.90;95562.81;5067864;28;20041;-71
2021/05/01 10:43:53;;;;;;;12.50;9.52;;;;;;;14.80;58.20;95562.06;5069058;28;20048;-71
2021/05/01 10:46:23;;;;;;;14.25;10.27;;;;;;;14.80;58.20;95544.81;5067132;28;20048;-73
2021/05/01 10:48:51;;;;;;;12.15;9.52;;;;;;;14.81;57.86;95546.41;5068647;28;20394;-70
2021/05/01 10:51:19;;;;;;;13.27;9.60;;;;;;;14.86;58.73;95544.16;5074720;28;20051;-72
2021/05/01 10:53:48;;;;;;;12.55;9.75;;;;;;;14.93;58.26;95553.66;5089066;28;20213;-73
2021/05/01 10:56:26;;;;;;;15.13;10.60;;;;;;;14.98;57.31;95551.44;5083755;28;20083;-73
2021/05/01 10:58:54;;;;;;;13.68;10.48;;;;;;;14.99;58.07;95552.22;5068517;28;20131;-73
2021/05/01 11:01:33;;;;;;;14.68;10.10;;;;;;;14.94;58.08;95558.00;5067567;28;20045;-73
2021/05/01 11:04:01;;;;;;;14.02;9.70;;;;;;;14.88;57.85;95563.78;5067820;28;20622;-73
2021/05/01 11:06:29;;;;;;;14.35;9.98;;;;;;;14.84;58.06;95557.44;5068267;28;20051;-73
2021/05/01 11:09:01;;;;;;;13.70;10.02;;;;;;;14.75;56.39;95559.63;5067557;28;20049;-73
2021/05/01 11:11:31;;;;;;;13.50;9.77;;;;;;;14.70;57.01;95561.88;5068411;28;20048;-73
2021/05/01 11:14:04;;;;;;;12.07;9.18;;;;;;;14.68;57.36;95559.50;5067702;28;20345;-73
2021/05/01 11:16:37;;;;;;;15.52;11.00;;;;;;;14.64;57.56;95558.63;5067544;28;20097;-73
2021/05/01 11:19:06;;;;;;;15.65;11.50;;;;;;;14.71;58.97;95552.50;5066991;28;20075;-73
2021/05/01 11:21:33;;;;;;;13.77;9.95;;;;;;;14.67;56.92;95546.97;5077436;28;20190;-73